Albano Laziale, Italy

7:23 PM CEST on April 19, 2018 (GMT +0200)
Albano Laziale | | Change Station

Elev 1476 ft 41.73 °N, 12.67 °E | Updated 12 minutes ago

Clear
Clear
67.1 °F
Feels Like 67.1 °F
N
3.0
Wind Variable Wind from North
Gusts 5.0 mph

Today
High -- | Low -- °F
--% Chance of Precip.
Yesterday
High -- | Low -- °F
Precip. -- in
Pressure 30.18 in
Visibility 6.2 miles
Clouds Few 2000 ft
Dew Point 51 °F
Humidity 56%
Rainfall 0.00 in
Snow Depth Not available.
6:23 AM 7:54 PM
Waxing Crescent, 16% visible
METAR LIRE 191655Z 29007KT 9999 FEW020 22/16 Q1022 RMK FEW VIS MIN 9999 WIND THR13 30007KT WIND THR31 29007KT BLU
Pressure 30.18 in
Visibility 6.2 miles
Clouds Few 2000 ft
Dew Point 51 °F
Humidity 56%
Rainfall 0.00 in
Snow Depth Not available.
6:23 AM 7:54 PM
Waxing Crescent, 16% visible
METAR LIRE 191655Z 29007KT 9999 FEW020 22/16 Q1022 RMK FEW VIS MIN 9999 WIND THR13 30007KT WIND THR31 29007KT BLU

Get Severe Weather Alerts

Thanks for signing up!

Be on the lookout for a verification email in your inbox.

You'll start receiving the daily forecast at 6 AM.

×

10-Day Weather Forecast

×

Almanac

Astronomy

Apr. 19, 2018 Rise Set
Actual Time
Civil Twilight
Nautical Twilight
Astronomical Twilight
Moon
Length of Visible Light
Length of Day
Tomorrow will be .
, % of the Moon is Illuminated

Today's Extremes

Country Highs Country Lows

Community

WunderPhotos

Category 6

Welcome to Category 6. This is the collective home for Weather Underground's featured writeups by Dr. Jeff Masters (right), Bob Henson (left), Chris Burt, and other regular contributors.

Nearby

Air Quality

  Air Quality AQ Index Pollutant
Not available.

Snow Depth

Station Depth Elevation

Earthquake Activity

City Distance Mag. Time & Date
Minimum magnitude displayed is 2.5.

Coastal Water Temperatures

Place Temperature

Stations

Nearby Weather Stations

Station Location Temp. Windchill Dew Point Humidity Wind Precip. Elev Updated Type